createdAt,value
2022-10-08T00:02:54.213Z,4.19
2022-10-08T00:12:31.852Z,4.2
2022-10-08T00:31:46.619Z,4.19
2022-10-08T00:41:23.603Z,4.2
2022-10-08T00:51:00.595Z,4.19
2022-10-08T01:00:37.705Z,4.19
2022-10-08T01:10:14.966Z,4.19
2022-10-08T01:29:28.472Z,4.19
2022-10-08T01:48:41.968Z,4.19
2022-10-08T01:58:19.140Z,4.19
2022-10-08T02:07:56.187Z,4.19
2022-10-08T02:17:33.740Z,4.19
2022-10-08T02:27:10.631Z,4.19
2022-10-08T02:56:02.165Z,4.19
2022-10-08T03:05:39.717Z,4.19
2022-10-08T03:15:17.293Z,4.19
2022-10-08T03:34:30.469Z,4.19
2022-10-08T03:44:07.392Z,4.19
2022-10-08T03:53:44.548Z,4.19
2022-10-08T04:03:21.152Z,4.19
2022-10-08T04:22:34.681Z,4.19
2022-10-08T04:41:48.658Z,4.19
2022-10-08T05:01:03.069Z,4.19
2022-10-08T05:20:16.930Z,4.19
2022-10-08T05:29:53.988Z,4.19
2022-10-08T05:39:30.259Z,4.19
2022-10-08T05:49:07.706Z,4.19
2022-10-08T05:58:44.974Z,4.19
2022-10-08T06:08:22.534Z,4.19
2022-10-08T06:17:59.851Z,4.18
2022-10-08T06:27:37.223Z,4.18
2022-10-08T06:37:15.041Z,4.19
2022-10-08T06:46:52.649Z,4.19
2022-10-08T06:56:30.043Z,4.19
2022-10-08T07:15:46.097Z,4.19
2022-10-08T07:25:24.195Z,4.19
2022-10-08T07:35:02.132Z,4.19
2022-10-08T07:54:18.131Z,4.19
2022-10-08T08:03:56.227Z,4.19
2022-10-08T08:13:36.891Z,4.19
2022-10-08T08:23:11.672Z,4.19
2022-10-08T08:42:28.605Z,4.19
2022-10-08T08:52:07.468Z,4.19
2022-10-08T09:30:35.028Z,4.19
2022-10-08T09:40:12.861Z,4.19
2022-10-08T09:49:50.808Z,4.19
2022-10-08T09:59:29.413Z,4.19
2022-10-08T10:09:09.166Z,4.2
2022-10-08T10:18:49.707Z,4.2
2022-10-08T10:28:25.252Z,4.19
2022-10-08T10:47:36.994Z,4.19
2022-10-08T11:06:49.954Z,4.19
2022-10-08T11:16:26.028Z,4.19
2022-10-08T11:26:20.717Z,4.19
2022-10-08T11:45:16.622Z,4.19
2022-10-08T11:54:55.713Z,4.19
2022-10-08T12:04:29.723Z,4.19
2022-10-08T12:14:07.184Z,4.19
2022-10-08T12:23:46.199Z,4.19
2022-10-08T12:33:24.126Z,4.19
2022-10-08T12:43:01.955Z,4.19
2022-10-08T12:52:38.320Z,4.19
2022-10-08T13:02:14.085Z,4.19
2022-10-08T13:21:31.199Z,4.19
2022-10-08T13:31:09.776Z,4.19
2022-10-08T13:40:52.299Z,4.21
2022-10-08T14:00:37.844Z,4.2
2022-10-08T14:19:32.157Z,4.2
2022-10-08T14:29:05.554Z,4.25
2022-10-08T14:39:03.895Z,4.26
2022-10-08T14:48:45.827Z,4.25
2022-10-08T14:58:08.743Z,4.23
2022-10-08T15:07:39.491Z,4.22
2022-10-08T15:17:07.587Z,4.21
2022-10-08T15:26:39.288Z,4.2
2022-10-08T15:45:45.456Z,4.2
2022-10-08T15:55:20.904Z,4.2
2022-10-08T16:14:32.713Z,4.19
2022-10-08T16:33:43.604Z,4.19
2022-10-08T16:43:19.027Z,4.19
2022-10-08T16:52:55.426Z,4.19
2022-10-08T17:12:07.905Z,4.19
2022-10-08T17:21:44.395Z,4.19
2022-10-08T17:31:21.166Z,4.19
2022-10-08T17:40:57.317Z,4.19
2022-10-08T17:50:33.500Z,4.19
2022-10-08T18:00:09.930Z,4.19
2022-10-08T18:09:46.542Z,4.19
2022-10-08T18:19:22.570Z,4.19
2022-10-08T18:38:36.069Z,4.19
2022-10-08T18:48:12.933Z,4.19
2022-10-08T18:57:49.516Z,4.19
2022-10-08T19:07:25.925Z,4.18
2022-10-08T19:17:02.806Z,4.18
2022-10-08T19:26:39.559Z,4.18
2022-10-08T19:36:16.158Z,4.18
2022-10-08T19:45:52.709Z,4.18
2022-10-08T19:55:29.568Z,4.18
2022-10-08T20:05:06.131Z,4.18
2022-10-08T20:14:42.581Z,4.18
2022-10-08T20:24:19.681Z,4.18
2022-10-08T20:43:33.568Z,4.17
2022-10-08T20:53:10.086Z,4.17
2022-10-08T21:02:46.796Z,4.17
2022-10-08T21:22:01.054Z,4.16
2022-10-08T21:31:36.611Z,4.16
2022-10-08T21:41:12.819Z,4.16
2022-10-08T21:50:49.417Z,4.16
2022-10-08T22:10:02.909Z,4.16
2022-10-08T22:38:53.234Z,4.16
2022-10-08T22:58:06.542Z,4.16
2022-10-08T23:17:20.529Z,4.16
2022-10-08T23:26:57.341Z,4.16
2022-10-08T23:36:34.267Z,4.16
2022-10-08T23:46:11.126Z,4.16
2022-10-08T23:55:46.763Z,4.16
